createdAt,value
2023-01-23T00:01:39.693Z,17.10
2023-01-23T00:04:08.042Z,15.20
2023-01-23T00:06:35.936Z,13.85
2023-01-23T00:09:04.372Z,13.23
2023-01-23T00:11:34.497Z,15.07
2023-01-23T00:14:03.828Z,15.13
2023-01-23T00:16:33.927Z,15.68
2023-01-23T00:19:01.964Z,17.52
2023-01-23T00:21:31.100Z,15.73
2023-01-23T00:24:01.485Z,15.55
2023-01-23T00:26:33.758Z,17.58
2023-01-23T00:29:02.021Z,15.27
2023-01-23T00:31:33.045Z,16.90
2023-01-23T00:34:04.051Z,15.75
2023-01-23T00:36:36.733Z,17.63
2023-01-23T00:39:08.637Z,18.08
2023-01-23T00:41:37.834Z,16.98
2023-01-23T00:44:05.942Z,13.88
2023-01-23T00:46:34.884Z,14.88
2023-01-23T00:49:02.875Z,13.85
2023-01-23T00:51:30.950Z,14.20
2023-01-23T00:53:58.843Z,15.38
2023-01-23T00:56:26.823Z,13.43
2023-01-23T00:58:56.982Z,12.52
2023-01-23T01:01:26.005Z,12.98
2023-01-23T01:03:54.475Z,13.35
2023-01-23T01:06:22.730Z,13.90
2023-01-23T01:08:51.545Z,13.27
2023-01-23T01:11:22.239Z,11.80
2023-01-23T01:13:50.438Z,13.13
2023-01-23T01:16:20.731Z,13.00
2023-01-23T01:18:48.634Z,12.55
2023-01-23T01:21:17.667Z,14.95
2023-01-23T01:23:46.652Z,12.82
2023-01-23T01:26:15.049Z,12.70
2023-01-23T01:28:43.863Z,13.32
2023-01-23T01:31:15.165Z,13.32
2023-01-23T01:33:45.511Z,13.98
2023-01-23T01:36:17.840Z,15.18
2023-01-23T01:38:48.767Z,13.32
2023-01-23T01:41:17.940Z,13.40
2023-01-23T01:43:46.660Z,14.02
2023-01-23T01:46:22.716Z,14.32
2023-01-23T01:49:07.209Z,13.65
2023-01-23T01:51:40.241Z,13.27
2023-01-23T01:54:28.725Z,14.57
2023-01-23T01:57:03.446Z,14.07
2023-01-23T01:59:36.303Z,15.23
2023-01-23T02:02:13.234Z,13.38
2023-01-23T02:04:48.373Z,14.45
2023-01-23T02:07:26.983Z,13.95
2023-01-23T02:09:56.334Z,14.18
2023-01-23T02:12:26.814Z,14.52
2023-01-23T02:14:55.102Z,15.57
2023-01-23T02:17:23.226Z,14.40
2023-01-23T02:20:04.234Z,14.85
2023-01-23T02:22:45.598Z,15.02
2023-01-23T02:25:29.576Z,14.05
2023-01-23T02:27:59.537Z,14.75
2023-01-23T02:30:27.880Z,14.15
2023-01-23T02:33:10.407Z,14.80
2023-01-23T02:35:38.818Z,15.13
2023-01-23T02:38:10.868Z,16.30
2023-01-23T02:40:43.065Z,14.60
2023-01-23T02:43:28.331Z,15.38
2023-01-23T02:46:03.114Z,15.88
2023-01-23T02:48:31.373Z,19.67
2023-01-23T02:51:01.489Z,17.80
2023-01-23T02:53:30.591Z,19.98
2023-01-23T02:56:00.802Z,18.52
2023-01-23T02:58:47.377Z,19.55
2023-01-23T03:01:15.400Z,20.58
2023-01-23T03:03:43.408Z,24.00
2023-01-23T03:06:12.557Z,22.35
2023-01-23T03:08:47.409Z,21.63
2023-01-23T03:11:17.903Z,23.58
2023-01-23T03:13:48.775Z,19.13
2023-01-23T03:16:16.994Z,20.25
2023-01-23T03:18:54.011Z,27.52
2023-01-23T03:21:22.417Z,21.80
2023-01-23T03:23:50.447Z,19.10
2023-01-23T03:26:19.318Z,21.83
2023-01-23T03:29:07.716Z,24.65
2023-01-23T03:31:36.064Z,22.75
2023-01-23T03:34:04.018Z,23.75
2023-01-23T03:36:37.236Z,23.92
2023-01-23T03:39:24.778Z,19.23
2023-01-23T03:41:54.014Z,22.08
2023-01-23T03:44:24.881Z,20.05
2023-01-23T03:46:53.805Z,26.40
2023-01-23T03:49:24.540Z,22.52
2023-01-23T03:52:00.054Z,17.00
2023-01-23T03:54:31.431Z,20.60
2023-01-23T03:56:59.357Z,19.20
2023-01-23T03:59:51.479Z,28.48
2023-01-23T04:02:22.061Z,23.63
2023-01-23T04:04:49.950Z,20.48
2023-01-23T04:07:18.829Z,20.92
2023-01-23T04:09:46.787Z,25.02
2023-01-23T04:12:15.021Z,21.13
2023-01-23T04:14:46.014Z,19.83
2023-01-23T04:17:17.070Z,19.65
2023-01-23T04:19:45.076Z,31.52
2023-01-23T04:22:12.974Z,24.90
2023-01-23T04:24:46.841Z,24.73
2023-01-23T04:27:14.855Z,34.90
2023-01-23T04:29:42.923Z,36.47
2023-01-23T04:32:11.068Z,23.73
2023-01-23T04:34:46.537Z,19.15
2023-01-23T04:37:15.231Z,26.40
2023-01-23T04:39:43.374Z,21.85
2023-01-23T04:42:11.529Z,19.45
2023-01-23T04:44:50.622Z,23.27
2023-01-23T04:47:37.713Z,19.10
2023-01-23T04:50:13.660Z,19.20
2023-01-23T04:52:45.143Z,16.38
2023-01-23T04:55:13.839Z,16.95
2023-01-23T04:57:42.308Z,14.48
2023-01-23T05:00:23.528Z,18.80
2023-01-23T05:02:52.232Z,16.30
2023-01-23T05:05:21.899Z,15.95
2023-01-23T05:07:53.446Z,16.65
2023-01-23T05:10:22.150Z,16.05
2023-01-23T05:12:50.857Z,17.00
2023-01-23T05:15:21.091Z,21.25
2023-01-23T05:17:49.553Z,15.75
2023-01-23T05:20:18.033Z,19.25
2023-01-23T05:22:53.071Z,15.25
2023-01-23T05:25:29.357Z,16.42
2023-01-23T05:27:59.843Z,16.50
2023-01-23T05:30:27.826Z,14.48
2023-01-23T05:33:07.777Z,14.68
2023-01-23T05:35:37.416Z,14.70
2023-01-23T05:38:06.807Z,13.57
2023-01-23T05:40:35.121Z,16.98
2023-01-23T05:43:21.540Z,20.10
2023-01-23T05:46:07.960Z,16.10
2023-01-23T05:48:50.986Z,21.42
2023-01-23T05:51:31.336Z,15.32
2023-01-23T05:54:02.538Z,16.48
2023-01-23T05:56:31.449Z,21.10
2023-01-23T05:59:18.025Z,23.35
2023-01-23T06:02:16.090Z,24.42
2023-01-23T06:05:19.670Z,17.33
2023-01-23T06:08:01.565Z,15.25
2023-01-23T06:10:34.083Z,26.20
2023-01-23T06:13:02.077Z,22.45
2023-01-23T06:15:30.230Z,22.10
2023-01-23T06:18:01.124Z,26.88
2023-01-23T06:20:29.127Z,22.63
2023-01-23T06:22:57.819Z,27.70
2023-01-23T06:25:27.525Z,27.77
2023-01-23T06:27:59.415Z,24.60
2023-01-23T06:30:30.273Z,29.20
2023-01-23T06:32:58.447Z,25.95
2023-01-23T06:35:33.940Z,29.30
2023-01-23T06:38:01.873Z,24.83
2023-01-23T06:40:30.335Z,21.45
2023-01-23T06:43:15.355Z,22.75
2023-01-23T06:45:45.272Z,27.70
2023-01-23T06:48:13.461Z,26.92
2023-01-23T06:50:44.545Z,24.05
2023-01-23T06:53:16.409Z,25.98
2023-01-23T06:55:46.519Z,20.02
2023-01-23T06:58:17.132Z,22.52
2023-01-23T07:00:45.288Z,28.45
2023-01-23T07:03:27.184Z,28.85
2023-01-23T07:05:55.209Z,29.02
2023-01-23T07:08:23.156Z,28.55
2023-01-23T07:10:51.640Z,21.17
2023-01-23T07:13:21.331Z,21.85
2023-01-23T07:15:51.390Z,22.42
2023-01-23T07:18:19.441Z,24.85
2023-01-23T07:20:49.657Z,24.67
2023-01-23T07:23:18.372Z,27.52
2023-01-23T07:25:46.635Z,25.00
2023-01-23T07:28:15.109Z,22.42
2023-01-23T07:30:44.365Z,29.50
2023-01-23T07:33:13.471Z,20.95
2023-01-23T07:35:41.486Z,32.25
2023-01-23T07:38:09.358Z,31.05
2023-01-23T07:40:38.889Z,21.20
2023-01-23T07:43:06.839Z,27.95
2023-01-23T07:45:34.867Z,25.42
2023-01-23T07:48:04.818Z,22.60
2023-01-23T07:50:32.703Z,23.63
2023-01-23T07:53:01.005Z,24.92
2023-01-23T07:55:29.175Z,23.77
2023-01-23T07:57:57.202Z,22.55
2023-01-23T08:00:29.211Z,23.35
2023-01-23T08:02:58.106Z,25.42
2023-01-23T08:05:27.635Z,21.02
2023-01-23T08:08:11.355Z,22.98
2023-01-23T08:10:39.806Z,19.77
2023-01-23T08:13:07.936Z,17.48
2023-01-23T08:15:35.818Z,19.60
2023-01-23T08:18:03.695Z,23.55
2023-01-23T08:20:32.986Z,22.35
2023-01-23T08:23:02.240Z,23.98
2023-01-23T08:25:31.239Z,22.60
2023-01-23T08:27:59.506Z,23.50
2023-01-23T08:30:27.378Z,24.30
2023-01-23T08:32:55.327Z,22.52
2023-01-23T08:35:23.302Z,20.00
2023-01-23T08:37:52.667Z,20.27
2023-01-23T08:40:21.381Z,20.60
2023-01-23T08:42:49.411Z,19.30
2023-01-23T08:45:17.550Z,21.35
2023-01-23T08:47:45.420Z,20.60
2023-01-23T08:50:16.605Z,20.52
2023-01-23T08:52:44.832Z,27.38
2023-01-23T08:55:14.141Z,25.67
2023-01-23T08:57:42.357Z,23.48
2023-01-23T09:00:12.689Z,25.80
2023-01-23T09:02:40.560Z,28.33
2023-01-23T09:05:09.982Z,19.23
2023-01-23T09:07:38.049Z,25.38
2023-01-23T09:10:07.917Z,24.48
2023-01-23T09:12:37.271Z,19.50
2023-01-23T09:15:05.848Z,21.48
2023-01-23T09:17:33.739Z,24.40
2023-01-23T09:20:01.775Z,23.83
2023-01-23T09:22:29.644Z,23.63
2023-01-23T09:24:57.858Z,23.23
2023-01-23T09:27:26.060Z,26.60
2023-01-23T09:29:55.987Z,21.52
2023-01-23T09:32:23.871Z,25.23
2023-01-23T09:34:51.764Z,24.80
2023-01-23T09:37:20.073Z,19.17
2023-01-23T09:39:48.046Z,26.73
2023-01-23T09:42:21.799Z,24.08
2023-01-23T09:44:58.032Z,28.50
2023-01-23T09:47:33.750Z,25.13
2023-01-23T09:50:08.904Z,19.88
2023-01-23T09:52:46.720Z,21.50
2023-01-23T09:55:24.051Z,29.45
2023-01-23T09:57:56.340Z,20.50
2023-01-23T10:00:29.964Z,25.23
2023-01-23T10:02:59.140Z,24.58
2023-01-23T10:05:36.115Z,22.95
2023-01-23T10:08:22.741Z,30.75
2023-01-23T10:11:01.020Z,27.33
2023-01-23T10:13:52.217Z,22.23
2023-01-23T10:16:49.886Z,23.02
2023-01-23T10:19:39.111Z,20.80
2023-01-23T10:22:26.054Z,21.75
2023-01-23T10:24:57.897Z,20.33
2023-01-23T10:27:34.559Z,26.65
2023-01-23T10:30:19.068Z,22.70
2023-01-23T10:32:56.923Z,18.85
2023-01-23T10:35:35.848Z,19.00
2023-01-23T10:38:21.350Z,24.20
2023-01-23T10:41:07.705Z,19.60
2023-01-23T10:43:37.066Z,20.30
2023-01-23T10:46:12.899Z,18.00
2023-01-23T10:48:46.790Z,22.15
2023-01-23T10:51:44.651Z,21.20
2023-01-23T10:54:31.216Z,21.13
2023-01-23T10:57:02.838Z,21.73
2023-01-23T10:59:36.544Z,23.85
2023-01-23T11:02:22.186Z,22.70
2023-01-23T11:04:54.818Z,26.33
2023-01-23T11:07:26.940Z,20.88
2023-01-23T11:09:59.296Z,27.67
2023-01-23T11:12:29.472Z,18.83
2023-01-23T11:15:22.522Z,22.10
2023-01-23T11:17:52.539Z,22.35
2023-01-23T11:20:30.704Z,23.27
2023-01-23T11:23:06.992Z,25.33
2023-01-23T11:25:39.081Z,21.20
2023-01-23T11:28:23.697Z,23.65
2023-01-23T11:31:11.863Z,19.42
2023-01-23T11:33:52.529Z,21.98
2023-01-23T11:36:49.409Z,18.55
2023-01-23T11:39:41.134Z,21.83
2023-01-23T11:42:12.019Z,20.67
2023-01-23T11:44:46.479Z,24.20
2023-01-23T11:47:37.070Z,22.35
2023-01-23T11:50:30.289Z,19.30
2023-01-23T11:53:12.385Z,19.38
2023-01-23T11:56:29.753Z,21.40
2023-01-23T11:59:19.656Z,21.13
2023-01-23T12:02:06.837Z,20.88
2023-01-23T12:05:10.098Z,25.75
2023-01-23T12:07:51.932Z,20.67
2023-01-23T12:10:30.899Z,22.77
2023-01-23T12:13:25.134Z,19.70
2023-01-23T12:16:15.132Z,21.35
2023-01-23T12:19:06.433Z,14.98
2023-01-23T12:21:43.732Z,19.80
2023-01-23T12:24:27.984Z,21.55
2023-01-23T12:27:07.249Z,18.52
2023-01-23T12:30:13.333Z,22.25
2023-01-23T12:33:09.156Z,23.23
2023-01-23T12:35:54.885Z,19.50
2023-01-23T12:38:32.152Z,18.58
2023-01-23T12:41:21.521Z,19.85
2023-01-23T12:44:01.070Z,19.75
2023-01-23T12:46:37.728Z,18.77
2023-01-23T12:49:22.372Z,23.95
2023-01-23T12:51:58.445Z,21.48
2023-01-23T12:54:41.856Z,20.92
2023-01-23T12:57:13.446Z,19.58
2023-01-23T12:59:59.930Z,17.17
2023-01-23T13:02:41.386Z,16.05
2023-01-23T13:05:23.040Z,23.05
2023-01-23T13:08:01.624Z,18.02
2023-01-23T13:11:18.821Z,17.63
2023-01-23T13:13:47.754Z,16.50
2023-01-23T13:16:19.667Z,19.27
2023-01-23T13:19:13.686Z,20.08
2023-01-23T13:22:04.745Z,22.85
2023-01-23T13:25:04.024Z,22.90
2023-01-23T13:27:42.139Z,26.90
2023-01-23T13:30:44.511Z,19.80
2023-01-23T13:33:51.552Z,28.38
2023-01-23T13:36:32.881Z,24.00
2023-01-23T13:39:22.466Z,22.47
2023-01-23T13:41:53.981Z,19.30
2023-01-23T13:44:35.772Z,20.60
2023-01-23T14:22:55.965Z,17.27
2023-01-23T14:25:24.541Z,16.92
2023-01-23T14:28:04.563Z,17.98
2023-01-23T14:30:32.545Z,18.50
2023-01-23T14:33:00.652Z,16.37
2023-01-23T14:35:31.439Z,17.40
2023-01-23T14:38:06.074Z,18.57
2023-01-23T14:40:49.315Z,19.05
2023-01-23T14:43:23.291Z,15.67
2023-01-23T14:46:01.206Z,17.67
2023-01-23T14:48:30.598Z,17.00
2023-01-23T14:51:10.225Z,16.63
2023-01-23T14:53:43.264Z,17.10
2023-01-23T14:56:14.850Z,18.15
2023-01-23T14:58:43.614Z,17.70
2023-01-23T15:01:12.277Z,16.50
2023-01-23T15:03:43.684Z,19.27
2023-01-23T15:06:16.851Z,18.38
2023-01-23T15:08:47.718Z,18.10
2023-01-23T15:11:16.184Z,18.45
2023-01-23T15:13:50.281Z,19.17
2023-01-23T15:16:24.334Z,16.20
2023-01-23T15:19:01.104Z,18.23
2023-01-23T15:21:39.410Z,16.80
2023-01-23T15:24:26.117Z,17.23
2023-01-23T15:27:04.957Z,18.55
2023-01-23T15:29:34.838Z,19.25
2023-01-23T15:32:03.338Z,20.25
2023-01-23T15:34:34.726Z,19.95
2023-01-23T15:37:08.371Z,20.73
2023-01-23T15:39:41.054Z,20.37
2023-01-23T15:42:29.089Z,20.80
2023-01-23T15:45:01.071Z,23.70
2023-01-23T15:47:31.187Z,22.52
2023-01-23T15:50:01.493Z,25.00
2023-01-23T15:52:32.451Z,24.35
2023-01-23T15:55:05.652Z,22.67
2023-01-23T15:57:33.861Z,26.85
2023-01-23T16:00:01.811Z,27.80
2023-01-23T16:02:54.784Z,28.55
2023-01-23T16:05:27.279Z,29.75
2023-01-23T16:07:56.983Z,29.42
2023-01-23T16:10:29.815Z,29.58
2023-01-23T16:12:59.473Z,29.30
2023-01-23T16:15:30.640Z,36.03
2023-01-23T16:17:58.565Z,31.45
2023-01-23T16:20:30.748Z,33.22
2023-01-23T16:23:14.074Z,32.58
2023-01-23T16:25:46.161Z,29.05
2023-01-23T16:28:15.408Z,26.33
2023-01-23T16:30:44.510Z,27.45
2023-01-23T16:33:13.078Z,27.42
2023-01-23T16:35:42.501Z,25.80
2023-01-23T16:38:21.790Z,29.02
2023-01-23T16:40:53.148Z,26.80
2023-01-23T16:43:22.481Z,46.78
2023-01-23T16:45:53.689Z,34.53
2023-01-23T16:48:27.461Z,30.85
2023-01-23T16:51:01.788Z,40.35
2023-01-23T16:53:33.866Z,36.10
2023-01-23T16:56:05.123Z,34.08
2023-01-23T16:58:39.261Z,35.38
2023-01-23T17:01:16.061Z,32.17
2023-01-23T17:03:45.671Z,29.13
2023-01-23T17:06:16.678Z,32.63
2023-01-23T17:08:44.958Z,32.67
2023-01-23T17:11:24.058Z,27.67
2023-01-23T17:13:59.450Z,30.83
2023-01-23T17:16:28.441Z,32.97
2023-01-23T17:18:59.760Z,29.50
2023-01-23T17:21:34.466Z,32.97
2023-01-23T17:24:02.835Z,30.48
2023-01-23T17:26:32.470Z,28.25
2023-01-23T17:29:00.613Z,37.05
2023-01-23T17:31:32.358Z,35.40
2023-01-23T17:34:01.251Z,33.75
2023-01-23T17:36:29.127Z,29.88
2023-01-23T17:39:00.132Z,38.35
2023-01-23T17:41:28.235Z,30.98
2023-01-23T17:43:57.420Z,33.75
2023-01-23T17:46:28.598Z,34.58
2023-01-23T17:48:57.784Z,31.85
2023-01-23T17:51:27.303Z,29.42
2023-01-23T17:53:55.256Z,33.40
2023-01-23T17:56:23.160Z,36.60
2023-01-23T17:58:51.088Z,39.85
2023-01-23T18:01:24.084Z,36.65
2023-01-23T18:03:53.960Z,36.33
2023-01-23T18:06:21.887Z,31.17
2023-01-23T18:08:49.793Z,45.78
2023-01-23T18:11:21.524Z,36.97
2023-01-23T18:14:15.221Z,36.38
2023-01-23T18:16:47.993Z,33.55
2023-01-23T18:19:19.742Z,35.78
2023-01-23T18:21:51.433Z,38.13
2023-01-23T18:24:27.369Z,37.33
2023-01-23T18:27:02.061Z,40.20
2023-01-23T18:29:48.482Z,35.08
2023-01-23T18:32:54.417Z,47.20
2023-01-23T18:35:38.540Z,41.42
2023-01-23T18:38:19.649Z,37.08
2023-01-23T18:41:10.692Z,45.15
2023-01-23T18:43:40.877Z,37.22
2023-01-23T18:46:15.252Z,39.67
2023-01-23T18:48:47.852Z,34.03
2023-01-23T18:51:33.441Z,47.58
2023-01-23T18:54:18.755Z,45.28
2023-01-23T18:57:05.502Z,38.05
2023-01-23T18:59:49.254Z,35.90
2023-01-23T19:02:30.511Z,35.03
2023-01-23T19:05:29.716Z,49.30
2023-01-23T19:07:59.756Z,32.55
2023-01-23T19:10:40.145Z,45.10
2023-01-23T19:13:21.283Z,37.85
2023-01-23T19:16:01.889Z,46.58
2023-01-23T19:18:46.211Z,37.88
2023-01-23T19:21:22.991Z,38.35
2023-01-23T19:23:59.293Z,45.85
2023-01-23T19:26:29.794Z,43.15
2023-01-23T19:29:01.551Z,48.40
2023-01-23T19:31:32.781Z,36.10
2023-01-23T19:34:02.555Z,36.95
2023-01-23T19:36:35.006Z,43.80
2023-01-23T19:39:06.614Z,34.83
2023-01-23T19:41:42.806Z,34.03
2023-01-23T19:44:16.333Z,34.20
2023-01-23T19:46:44.784Z,36.38
2023-01-23T19:49:13.673Z,32.28
2023-01-23T19:51:44.202Z,31.73
2023-01-23T19:54:14.012Z,30.50
2023-01-23T19:56:42.672Z,30.77
2023-01-23T19:59:16.362Z,29.10
2023-01-23T20:01:48.606Z,28.27
2023-01-23T20:04:20.527Z,26.42
2023-01-23T20:06:51.747Z,26.93
2023-01-23T20:09:20.525Z,25.85
2023-01-23T20:11:48.968Z,24.37
2023-01-23T20:14:17.015Z,24.98
2023-01-23T20:16:44.940Z,25.55
2023-01-23T20:19:15.310Z,25.35
2023-01-23T20:21:44.091Z,24.50
2023-01-23T20:24:14.014Z,24.85
2023-01-23T20:26:42.431Z,26.38
2023-01-23T20:29:12.242Z,26.00
2023-01-23T20:31:40.306Z,23.70
2023-01-23T20:34:08.262Z,24.90
2023-01-23T20:36:36.143Z,24.65
2023-01-23T20:39:05.195Z,26.87
2023-01-23T20:41:34.510Z,26.53
2023-01-23T20:44:02.692Z,25.47
2023-01-23T20:46:30.849Z,25.13
2023-01-23T20:48:59.633Z,26.67
2023-01-23T20:51:27.530Z,24.80
2023-01-23T20:53:54.730Z,23.90
2023-01-23T20:56:27.355Z,24.75
2023-01-23T20:59:15.864Z,24.77
2023-01-23T21:02:02.223Z,24.70
2023-01-23T21:04:33.972Z,26.48
2023-01-23T21:07:03.035Z,26.30
2023-01-23T21:09:31.388Z,26.27
2023-01-23T21:12:00.710Z,25.13
2023-01-23T21:14:30.900Z,26.30
2023-01-23T21:16:59.072Z,26.67
2023-01-23T21:19:30.238Z,27.77
2023-01-23T21:21:58.470Z,27.70
2023-01-23T21:24:27.355Z,28.15
2023-01-23T21:26:55.402Z,27.63
2023-01-23T21:29:23.283Z,27.35
2023-01-23T21:31:52.524Z,26.25
2023-01-23T21:34:20.742Z,25.80
2023-01-23T21:36:48.738Z,27.75
2023-01-23T21:39:17.689Z,28.05
2023-01-23T21:41:45.718Z,27.98
2023-01-23T21:44:14.637Z,27.38
2023-01-23T21:46:42.843Z,26.67
2023-01-23T21:49:12.308Z,25.95
2023-01-23T21:51:40.710Z,24.15
2023-01-23T21:54:08.667Z,25.23
2023-01-23T21:56:37.376Z,25.50
2023-01-23T21:59:05.574Z,24.98
2023-01-23T22:01:33.133Z,26.13
2023-01-23T22:04:04.365Z,24.15
2023-01-23T22:06:35.183Z,25.83
2023-01-23T22:09:07.509Z,23.88
2023-01-23T22:11:36.441Z,25.63
2023-01-23T22:14:05.224Z,24.38
2023-01-23T22:16:47.940Z,24.52
2023-01-23T22:19:20.684Z,23.55
2023-01-23T22:21:51.329Z,23.23
2023-01-23T22:24:19.470Z,23.15
2023-01-23T22:26:47.387Z,23.63
2023-01-23T22:29:22.779Z,23.15
2023-01-23T22:31:51.202Z,23.05
2023-01-23T22:34:19.167Z,24.80
2023-01-23T22:36:47.069Z,24.23
2023-01-23T22:39:16.807Z,23.42
2023-01-23T22:41:45.787Z,24.85
2023-01-23T22:44:14.787Z,24.25
2023-01-23T22:46:42.810Z,23.73
2023-01-23T22:49:11.210Z,22.70
2023-01-23T22:51:39.115Z,22.63
2023-01-23T22:54:07.051Z,21.73
2023-01-23T22:56:36.317Z,23.88
2023-01-23T22:59:04.348Z,23.42
2023-01-23T23:01:32.628Z,22.70
2023-01-23T23:04:01.518Z,24.45
2023-01-23T23:06:29.889Z,23.13
2023-01-23T23:08:57.786Z,24.23
2023-01-23T23:11:28.787Z,22.15
2023-01-23T23:13:58.969Z,23.05
2023-01-23T23:16:30.926Z,24.42
2023-01-23T23:19:02.750Z,24.45
2023-01-23T23:21:35.602Z,23.30
2023-01-23T23:24:06.122Z,22.67
2023-01-23T23:26:35.035Z,23.73
2023-01-23T23:29:05.151Z,22.67
2023-01-23T23:31:33.900Z,23.40
2023-01-23T23:34:02.099Z,23.48
2023-01-23T23:36:30.035Z,23.30
2023-01-23T23:38:58.186Z,23.42
2023-01-23T23:41:26.333Z,24.48
2023-01-23T23:43:54.536Z,22.23
2023-01-23T23:46:23.816Z,23.45
2023-01-23T23:48:51.723Z,22.83
2023-01-23T23:51:22.758Z,24.40
2023-01-23T23:53:51.273Z,21.77
2023-01-23T23:56:22.996Z,20.75
2023-01-23T23:58:51.764Z,21.92
